createdAt,value
2022-08-12T00:04:05.546Z,16.60
2022-08-12T00:09:26.911Z,16.50
2022-08-12T00:14:47.478Z,16.60
2022-08-12T00:20:09.763Z,16.50
2022-08-12T00:25:55.737Z,16.40
2022-08-12T00:31:11.575Z,16.50
2022-08-12T00:36:35.375Z,16.30
2022-08-12T00:41:58.013Z,16.30
2022-08-12T00:47:02.501Z,16.40
2022-08-12T00:52:09.969Z,16.30
2022-08-12T00:57:15.678Z,16.10
2022-08-12T01:02:24.992Z,16.00
2022-08-12T01:07:47.709Z,16.00
2022-08-12T01:12:52.073Z,16.00
2022-08-12T01:17:55.641Z,16.10
2022-08-12T01:23:39.051Z,16.20
2022-08-12T01:28:45.923Z,16.20
2022-08-12T01:33:59.801Z,14.40
2022-08-12T01:39:04.946Z,16.20
2022-08-12T01:44:11.617Z,16.00
2022-08-12T01:49:41.655Z,15.90
2022-08-12T01:54:46.825Z,15.80
2022-08-12T01:59:59.619Z,15.80
2022-08-12T02:05:33.273Z,15.90
2022-08-12T02:11:07.572Z,15.80
2022-08-12T02:16:22.807Z,15.60
2022-08-12T02:21:39.335Z,15.70
2022-08-12T02:26:45.652Z,15.60
2022-08-12T02:31:51.120Z,15.50
2022-08-12T02:36:56.139Z,15.50
2022-08-12T02:42:06.816Z,15.50
2022-08-12T02:47:55.637Z,15.50
2022-08-12T02:52:40.322Z,15.20
2022-08-12T02:57:44.701Z,15.10
2022-08-12T03:02:54.109Z,15.00
2022-08-12T03:08:01.082Z,14.80
2022-08-12T03:13:07.340Z,14.80
2022-08-12T03:18:24.891Z,14.90
2022-08-12T03:23:32.394Z,14.90
2022-08-12T03:28:54.453Z,14.90
2022-08-12T03:34:03.565Z,14.80
2022-08-12T03:39:35.605Z,15.00
2022-08-12T03:45:05.919Z,15.00
2022-08-12T03:50:28.437Z,14.90
2022-08-12T03:55:48.933Z,15.10
2022-08-12T04:00:52.637Z,15.00
2022-08-12T04:05:57.923Z,15.00
2022-08-12T04:11:18.652Z,15.00
2022-08-12T04:16:22.172Z,15.10
2022-08-12T04:21:26.842Z,15.10
2022-08-12T04:26:30.616Z,15.20
2022-08-12T04:31:35.017Z,15.30
2022-08-12T04:36:40.817Z,15.20
2022-08-12T04:41:50.323Z,15.10
2022-08-12T04:47:02.149Z,15.20
2022-08-12T04:52:07.252Z,15.30
2022-08-12T04:57:10.516Z,15.30
2022-08-12T05:02:16.976Z,15.40
2022-08-12T05:07:26.513Z,15.60
2022-08-12T05:12:36.679Z,15.60
2022-08-12T05:17:41.677Z,20.00
2022-08-12T05:22:50.101Z,17.30
2022-08-12T05:28:00.632Z,16.00
2022-08-12T05:33:05.845Z,16.10
2022-08-12T05:38:28.581Z,16.50
2022-08-12T05:43:33.944Z,16.80
2022-08-12T05:48:37.233Z,17.20
2022-08-12T05:53:42.600Z,17.10
2022-08-12T05:58:45.861Z,17.50
2022-08-12T06:03:51.173Z,17.60
2022-08-12T06:08:56.182Z,18.10
2022-08-12T06:13:59.593Z,18.60
2022-08-12T06:19:03.740Z,19.00
2022-08-12T06:24:08.987Z,19.70
2022-08-12T06:30:07.999Z,19.80
2022-08-12T06:35:25.148Z,22.50
2022-08-12T06:40:07.117Z,22.20
2022-08-12T06:45:12.527Z,21.80
2022-08-12T06:50:17.021Z,22.20
2022-08-12T06:55:25.648Z,22.90
2022-08-12T07:00:32.785Z,23.40
2022-08-12T07:05:37.446Z,22.10
2022-08-12T07:10:44.617Z,23.70
2022-08-12T07:15:48.055Z,23.60
2022-08-12T07:20:52.969Z,24.70
2022-08-12T07:25:59.214Z,24.90
2022-08-12T07:31:05.125Z,25.30
2022-08-12T07:36:11.934Z,25.70
2022-08-12T07:41:18.907Z,25.10
2022-08-12T07:46:24.702Z,25.30
2022-08-12T07:51:28.527Z,25.90
2022-08-12T07:56:33.690Z,26.30
2022-08-12T08:01:43.735Z,26.60
2022-08-12T08:06:52.027Z,25.70
2022-08-12T08:12:18.530Z,26.40
2022-08-12T08:17:26.121Z,26.90
2022-08-12T08:22:41.111Z,23.70
2022-08-12T08:27:47.690Z,27.40
2022-08-12T08:32:51.169Z,26.30
2022-08-12T08:38:08.462Z,26.30
2022-08-12T08:43:16.276Z,26.00
2022-08-12T08:48:19.816Z,25.40
2022-08-12T08:53:23.098Z,25.50
2022-08-12T08:58:28.267Z,25.30
2022-08-12T09:05:09.508Z,25.40
2022-08-12T09:08:56.901Z,25.60
2022-08-12T09:14:11.311Z,26.10
2022-08-12T09:19:27.653Z,27.30
2022-08-12T09:24:31.900Z,28.10
2022-08-12T09:30:10.831Z,29.10
2022-08-12T09:34:59.999Z,30.80
2022-08-12T09:40:57.533Z,31.20
2022-08-12T09:46:06.605Z,31.20
2022-08-12T09:50:55.596Z,30.00
2022-08-12T09:56:56.589Z,31.40
2022-08-12T10:01:35.492Z,30.70
2022-08-12T10:06:54.783Z,30.40
2022-08-12T10:12:31.097Z,30.80
2022-08-12T10:18:06.317Z,30.40
2022-08-12T10:23:01.742Z,31.30
2022-08-12T10:28:25.452Z,31.10
2022-08-12T10:33:32.273Z,31.00
2022-08-12T10:38:41.592Z,31.60
2022-08-12T10:43:54.214Z,31.00
2022-08-12T10:49:06.603Z,31.30
2022-08-12T10:54:27.741Z,32.50
2022-08-12T11:00:29.688Z,31.30
2022-08-12T11:04:58.205Z,31.00
2022-08-12T11:10:02.755Z,29.10
2022-08-12T11:15:18.739Z,30.10
2022-08-12T11:20:31.229Z,31.80
2022-08-12T11:25:55.709Z,32.30
2022-08-12T11:30:58.036Z,32.50
2022-08-12T11:36:13.992Z,32.00
2022-08-12T11:41:28.174Z,29.80
2022-08-12T11:46:37.273Z,28.90
2022-08-12T11:51:41.925Z,27.80
2022-08-12T11:56:59.300Z,27.40
2022-08-12T12:02:05.264Z,26.80
2022-08-12T12:07:11.468Z,26.30
2022-08-12T12:12:15.458Z,26.50
2022-08-12T12:17:18.780Z,26.90
2022-08-12T12:22:27.132Z,27.50
2022-08-12T12:28:04.423Z,28.40
2022-08-12T12:33:09.577Z,30.50
2022-08-12T12:38:16.011Z,32.50
2022-08-12T12:43:29.148Z,34.80
2022-08-12T12:48:44.670Z,34.60
2022-08-12T12:54:08.575Z,30.60
2022-08-12T12:59:54.774Z,27.90
2022-08-12T13:04:37.332Z,26.70
2022-08-12T13:09:46.635Z,26.20
2022-08-12T13:14:50.186Z,26.40
2022-08-12T13:19:54.673Z,28.00
2022-08-12T13:25:01.764Z,30.10
2022-08-12T13:30:11.123Z,30.40
2022-08-12T13:35:19.871Z,28.50
2022-08-12T13:40:39.992Z,27.30
2022-08-12T13:45:43.590Z,27.00
2022-08-12T13:50:48.093Z,26.50
2022-08-12T13:56:01.616Z,28.80
2022-08-12T14:01:09.243Z,30.40
2022-08-12T14:06:15.445Z,26.80
2022-08-12T14:11:25.334Z,25.90
2022-08-12T14:16:37.905Z,24.80
2022-08-12T14:21:59.404Z,23.60
2022-08-12T14:27:09.342Z,23.90
2022-08-12T14:32:16.860Z,25.70
2022-08-12T14:37:56.168Z,26.60
2022-08-12T14:42:47.874Z,27.70
2022-08-12T14:47:58.568Z,28.50
2022-08-12T14:58:28.534Z,31.00
2022-08-12T15:03:46.626Z,26.40
2022-08-12T15:08:56.574Z,25.90
2022-08-12T15:14:01.579Z,26.70
2022-08-12T15:20:11.885Z,26.80
2022-08-12T15:24:37.405Z,29.20
2022-08-12T15:29:42.634Z,32.30
2022-08-12T15:34:49.729Z,33.40
2022-08-12T15:40:01.248Z,32.40
2022-08-12T15:45:08.744Z,29.80
2022-08-12T15:50:23.049Z,28.30
2022-08-12T15:55:31.366Z,26.70
2022-08-12T16:00:40.786Z,26.00
2022-08-12T16:06:19.413Z,25.90
2022-08-12T16:11:15.221Z,27.20
2022-08-12T16:16:23.943Z,25.20
2022-08-12T16:21:51.990Z,24.70
2022-08-12T16:26:54.117Z,23.60
2022-08-12T16:32:00.249Z,23.70
2022-08-12T16:37:04.577Z,23.80
2022-08-12T16:42:10.754Z,23.90
2022-08-12T16:47:15.680Z,24.00
2022-08-12T16:52:22.921Z,23.80
2022-08-12T16:57:34.797Z,23.20
2022-08-12T17:02:40.469Z,22.90
2022-08-12T17:07:50.665Z,22.20
2022-08-12T17:12:56.143Z,22.10
2022-08-12T17:18:15.249Z,22.10
2022-08-12T17:23:47.902Z,22.10
2022-08-12T17:28:53.396Z,21.80
2022-08-12T17:33:58.908Z,21.80
2022-08-12T17:39:04.839Z,21.40
2022-08-12T17:44:13.110Z,21.40
2022-08-12T17:50:03.532Z,21.20
2022-08-12T17:54:46.330Z,21.00
2022-08-12T17:59:51.712Z,20.90
2022-08-12T18:05:10.194Z,20.90
2022-08-12T18:10:38.123Z,20.70
2022-08-12T18:16:05.801Z,20.50
2022-08-12T18:21:11.394Z,20.60
2022-08-12T18:26:31.529Z,20.50
2022-08-12T18:31:44.517Z,20.40
2022-08-12T18:37:16.398Z,20.30
2022-08-12T18:42:27.926Z,20.20
2022-08-12T18:47:47.066Z,19.80
2022-08-12T18:52:55.539Z,19.80
2022-08-12T18:58:08.613Z,19.60
2022-08-12T19:03:38.640Z,19.40
2022-08-12T19:08:42.866Z,19.30
2022-08-12T19:14:09.360Z,19.20
2022-08-12T19:19:18.267Z,19.00
2022-08-12T19:24:41.717Z,18.70
2022-08-12T19:30:05.932Z,18.60
2022-08-12T19:36:08.150Z,18.50
2022-08-12T19:40:37.288Z,18.50
2022-08-12T19:45:48.710Z,18.40
2022-08-12T19:50:56.726Z,18.20
2022-08-12T19:56:02.761Z,18.20
2022-08-12T20:01:11.385Z,18.20
2022-08-12T20:06:21.801Z,18.10
2022-08-12T20:12:13.856Z,17.90
2022-08-12T20:16:57.256Z,17.70
2022-08-12T20:22:08.537Z,17.60
2022-08-12T20:27:29.593Z,17.60
2022-08-12T20:32:54.022Z,17.50
2022-08-12T20:38:07.619Z,17.40
2022-08-12T20:43:24.204Z,17.40
2022-08-12T20:48:33.537Z,17.60
2022-08-12T20:53:58.074Z,17.60
2022-08-12T20:59:04.317Z,17.60
2022-08-12T21:04:27.892Z,17.60
2022-08-12T21:09:34.306Z,17.40
2022-08-12T21:14:53.202Z,16.90
2022-08-12T21:20:06.706Z,16.90
2022-08-12T21:25:19.291Z,16.90
2022-08-12T21:30:27.336Z,16.90
2022-08-12T21:35:40.166Z,17.00
2022-08-12T21:40:51.576Z,16.90
2022-08-12T21:46:01.345Z,16.90
2022-08-12T21:51:23.229Z,16.90
2022-08-12T21:56:34.668Z,16.90
2022-08-12T22:01:44.273Z,16.80
2022-08-12T22:06:54.501Z,17.90
2022-08-12T22:12:20.293Z,16.80
2022-08-12T22:17:33.872Z,15.40
2022-08-12T22:22:56.984Z,16.90
2022-08-12T22:28:17.769Z,16.80
2022-08-12T22:33:29.453Z,16.70
2022-08-12T22:38:56.009Z,16.70
2022-08-12T22:44:20.294Z,16.60
2022-08-12T22:49:37.364Z,16.50
2022-08-12T22:55:02.894Z,16.40
2022-08-12T23:00:24.666Z,16.40
2022-08-12T23:05:57.530Z,16.20
2022-08-12T23:10:56.870Z,16.00
2022-08-12T23:16:02.756Z,15.90
2022-08-12T23:21:13.584Z,15.80
2022-08-12T23:26:40.035Z,15.70
2022-08-12T23:32:01.775Z,15.70
2022-08-12T23:37:09.551Z,15.80
2022-08-12T23:42:16.867Z,15.80
2022-08-12T23:47:22.677Z,16.00
2022-08-12T23:52:28.566Z,16.00
2022-08-12T23:58:18.496Z,16.00
